Anapa, Russia
Current Conditions -  °F | °C
As of 10:30 PM on Thursday 27 Nov 2014 (Local Time) from URKA Reporting Station
Overcast Overcast  
Wind Chill: 28°   Ceiling: 1300
Heat Index: 32°   Visibility: 6mi
Dew Point: 30°   Wind: 4mph
Humidity: 93%   Direction: 320°NW
Pressure: 30.24"   Gusts: NA
Location:  44.89°N, 37.32°E
Report Text: URKA 271930Z 32002MPS 9000 BKN013 OVC110 M00/M01 Q1024 NOSIGRMK QFE764/1018 SC070
Loading
Personal Weather Stations






























Interactive Weather Map New forecast layout! Learn more

10-Day Weather Forecast

Advertisements
Track Severe Weather on mobile